Time;durP1;ratioP1;P1;durP2;ratioP2;P2;SDS_P1;SDS_P2;PMS_P1;PMS_P2;Temp;Humidity;BMP_temperature;BMP_pressure;BME280_temperature;BME280_humidity;BME280_pressure;Samples;Min_cycle;Max_cycle;Signal;HPM_P1;HPM_P2
2024/03/13 00:00:40;;;;;;;3.33;2.93;;;22.20;59.20;;;;;;5076235;28;20467;-83
2024/03/13 00:03:06;;;;;;;5.80;2.77;;;22.20;59.20;;;;;;5076147;28;20440;-82
2024/03/13 00:05:33;;;;;;;2.70;2.30;;;22.20;59.20;;;;;;5075752;28;20559;-83
2024/03/13 00:08:01;;;;;;;3.40;3.00;;;22.10;59.10;;;;;;5075995;28;20432;-92
2024/03/13 00:10:28;;;;;;;3.90;2.73;;;22.20;59.80;;;;;;5076183;28;20436;-89
2024/03/13 00:12:55;;;;;;;3.03;2.73;;;22.10;59.20;;;;;;5076499;28;20440;-92
2024/03/13 00:15:22;;;;;;;2.33;2.10;;;22.10;59.10;;;;;;5075670;28;20472;-92
2024/03/13 00:17:50;;;;;;;3.10;2.40;;;22.10;59.10;;;;;;5076334;28;20877;-83
2024/03/13 00:20:16;;;;;;;2.80;1.97;;;22.10;59.20;;;;;;5076170;28;20448;-83
2024/03/13 00:22:44;;;;;;;2.80;2.50;;;22.10;59.20;;;;;;5075383;28;20436;-84
2024/03/13 00:25:11;;;;;;;4.20;2.60;;;22.10;59.20;;;;;;5075597;28;20520;-83
2024/03/13 00:27:39;;;;;;;3.37;2.63;;;22.10;59.20;;;;;;5075598;28;20879;-83
2024/03/13 00:30:08;;;;;;;2.37;2.10;;;22.20;59.30;;;;;;5075425;28;20448;-92
2024/03/13 00:32:35;;;;;;;2.93;2.50;;;22.10;59.20;;;;;;5075282;28;20447;-92
2024/03/13 00:35:04;;;;;;;2.63;2.33;;;22.10;59.20;;;;;;5075523;28;20448;-92
2024/03/13 00:37:31;;;;;;;3.40;2.47;;;22.10;59.10;;;;;;5075403;28;20499;-83
2024/03/13 00:39:58;;;;;;;2.13;1.80;;;22.10;59.20;;;;;;5075603;28;20428;-86
2024/03/13 00:42:25;;;;;;;2.27;2.07;;;22.20;59.30;;;;;;5075627;28;20462;-84
2024/03/13 00:44:53;;;;;;;2.97;2.67;;;22.10;59.20;;;;;;5074684;28;20503;-83
2024/03/13 00:47:21;;;;;;;2.73;2.50;;;22.10;59.20;;;;;;5075632;28;20428;-82
2024/03/13 00:49:47;;;;;;;2.60;2.40;;;22.10;59.20;;;;;;5075337;28;20927;-83
2024/03/13 00:52:15;;;;;;;2.30;2.10;;;22.10;59.20;;;;;;5075949;28;20462;-91
2024/03/13 00:54:45;;;;;;;2.63;2.37;;;22.00;59.10;;;;;;5075472;28;20433;-87
2024/03/13 00:57:12;;;;;;;2.47;2.20;;;22.10;59.20;;;;;;5075311;28;21006;-92
2024/03/13 00:59:39;;;;;;;2.57;2.10;;;22.10;59.30;;;;;;5074855;28;20444;-87
2024/03/13 01:02:07;;;;;;;2.60;2.03;;;22.00;59.20;;;;;;5075077;28;20444;-92
2024/03/13 01:04:34;;;;;;;3.07;2.27;;;22.10;59.30;;;;;;5074944;28;20514;-91
2024/03/13 01:07:01;;;;;;;2.37;2.17;;;22.10;59.30;;;;;;5075149;28;20435;-83
2024/03/13 01:09:29;;;;;;;2.40;1.93;;;22.20;59.30;;;;;;5074921;28;20432;-91
2024/03/13 01:11:57;;;;;;;2.83;2.20;;;22.10;59.80;;;;;;5075329;28;20444;-83
2024/03/13 01:14:24;;;;;;;6.07;2.67;;;22.10;59.20;;;;;;5074996;28;20474;-91
2024/03/13 01:16:53;;;;;;;2.40;1.80;;;22.10;59.20;;;;;;5074516;28;20495;-83
2024/03/13 01:19:20;;;;;;;2.40;2.10;;;22.10;59.20;;;;;;5074738;28;20517;-82
2024/03/13 01:21:48;;;;;;;3.23;2.20;;;22.10;59.20;;;;;;5074683;28;20437;-91
2024/03/13 01:24:17;;;;;;;2.43;2.20;;;22.10;59.10;;;;;;5074822;28;20464;-90
2024/03/13 01:26:45;;;;;;;2.33;2.10;;;22.20;59.20;;;;;;5074718;28;20846;-91
2024/03/13 01:29:12;;;;;;;2.50;2.10;;;22.20;59.20;;;;;;5074961;28;20447;-92
2024/03/13 01:31:40;;;;;;;2.13;1.93;;;22.10;59.10;;;;;;5074483;28;20440;-86
2024/03/13 01:34:09;;;;;;;3.00;1.70;;;22.10;59.10;;;;;;5074674;28;20850;-86
2024/03/13 01:39:21;;;;;;;2.43;1.93;;;22.10;59.10;;;;;;5074532;28;20411;-83
2024/03/13 01:55:44;;;;;;;2.47;1.90;;;22.20;59.20;;;;;;5073890;28;20514;-83
2024/03/13 01:58:19;;;;;;;2.73;2.07;;;22.20;59.20;;;;;;5073634;28;20487;-83
2024/03/13 02:03:31;;;;;;;2.27;2.07;;;22.20;59.10;;;;;;5074137;28;20972;-90
2024/03/13 02:06:00;;;;;;;2.60;2.20;;;22.20;59.00;;;;;;5074244;28;20456;-91
2024/03/13 02:08:29;;;;;;;2.57;2.17;;;22.20;59.00;;;;;;5073801;28;20956;-91
2024/03/13 02:10:58;;;;;;;2.30;1.60;;;22.20;59.00;;;;;;5074391;28;20440;-92
2024/03/13 02:13:26;;;;;;;2.53;1.93;;;22.30;59.60;;;;;;5074123;28;20443;-83
2024/03/13 02:15:53;;;;;;;2.20;1.73;;;22.30;59.00;;;;;;5078120;28;20994;-90
2024/03/13 02:18:21;;;;;;;2.50;1.80;;;22.20;58.90;;;;;;5078087;28;20486;-90
2024/03/13 02:20:50;;;;;;;2.10;1.77;;;22.30;59.00;;;;;;5078327;28;20432;-90
2024/03/13 02:23:21;;;;;;;2.73;2.10;;;22.30;59.10;;;;;;5077998;28;20447;-83
2024/03/13 02:25:51;;;;;;;2.40;1.77;;;22.30;59.00;;;;;;5060217;28;20437;-89
2024/03/13 02:28:18;;;;;;;2.10;1.70;;;22.20;59.00;;;;;;5060888;28;20440;-91
2024/03/13 02:30:45;;;;;;;2.03;1.70;;;22.30;59.00;;;;;;5060582;28;20424;-92
2024/03/13 02:33:12;;;;;;;2.57;1.93;;;22.30;59.00;;;;;;5059890;28;20519;-92
2024/03/13 02:35:40;;;;;;;2.43;2.13;;;22.30;59.00;;;;;;5081442;28;20443;-86
2024/03/13 02:38:07;;;;;;;2.00;1.80;;;22.30;58.90;;;;;;5083065;28;20448;-85
2024/03/13 02:40:34;;;;;;;2.20;1.87;;;22.30;58.90;;;;;;5064962;28;20509;-83
2024/03/13 02:43:01;;;;;;;1.90;1.57;;;22.30;58.90;;;;;;5059748;28;20516;-82
2024/03/13 02:45:28;;;;;;;2.33;1.93;;;22.30;58.90;;;;;;5059188;28;21020;-90
2024/03/13 02:47:55;;;;;;;2.20;1.70;;;22.30;58.90;;;;;;5059014;28;20440;-82
2024/03/13 02:50:22;;;;;;;2.50;1.93;;;22.30;58.90;;;;;;5059637;28;20424;-82
2024/03/13 02:52:49;;;;;;;2.57;2.17;;;22.40;58.90;;;;;;5059563;28;20443;-82
2024/03/13 02:55:16;;;;;;;2.47;2.20;;;22.30;58.90;;;;;;5058865;28;20429;-82
2024/03/13 02:57:44;;;;;;;2.60;1.70;;;22.30;58.90;;;;;;5058773;28;20484;-83
2024/03/13 03:00:12;;;;;;;2.00;1.80;;;22.30;58.90;;;;;;5059293;28;20436;-84
2024/03/13 03:02:40;;;;;;;2.20;1.70;;;22.30;58.90;;;;;;5059272;28;20444;-83
2024/03/13 03:05:07;;;;;;;2.90;2.00;;;22.30;58.90;;;;;;5059018;28;20452;-83
2024/03/13 03:07:34;;;;;;;1.90;1.70;;;22.40;58.90;;;;;;5058892;28;20493;-83
2024/03/13 03:10:01;;;;;;;2.03;1.63;;;22.40;58.90;;;;;;5058858;28;20435;-83
2024/03/13 03:12:28;;;;;;;1.90;1.40;;;22.30;58.80;;;;;;5059145;28;20450;-86
2024/03/13 03:14:55;;;;;;;2.17;1.70;;;22.40;58.90;;;;;;5059200;28;20439;-89
2024/03/13 03:17:21;;;;;;;2.10;1.60;;;22.40;58.80;;;;;;5058657;28;20483;-84
2024/03/13 03:19:49;;;;;;;2.13;1.70;;;22.40;58.80;;;;;;5058684;28;20436;-83
2024/03/13 03:22:17;;;;;;;1.90;1.60;;;22.40;58.90;;;;;;5058673;28;20449;-83
2024/03/13 03:24:44;;;;;;;2.20;1.60;;;22.40;58.80;;;;;;5058354;28;20527;-92
2024/03/13 03:27:11;;;;;;;2.13;1.80;;;22.40;58.80;;;;;;5057379;28;20498;-82
2024/03/13 03:29:39;;;;;;;2.33;1.60;;;22.40;58.80;;;;;;5058443;28;20432;-92
2024/03/13 03:32:05;;;;;;;2.10;1.50;;;22.40;58.80;;;;;;5059221;28;20800;-90
2024/03/13 03:34:32;;;;;;;2.20;1.50;;;22.40;58.80;;;;;;5058696;28;20994;-86
2024/03/13 03:37:01;;;;;;;2.00;1.77;;;22.40;58.90;;;;;;5058752;28;20492;-90
2024/03/13 03:39:29;;;;;;;1.70;1.50;;;22.40;58.80;;;;;;5059345;28;20441;-83
2024/03/13 03:41:56;;;;;;;3.60;1.87;;;22.40;58.80;;;;;;5058768;28;20440;-89
2024/03/13 03:44:23;;;;;;;1.90;1.30;;;22.40;58.80;;;;;;5059026;28;20428;-82
2024/03/13 03:46:50;;;;;;;2.20;1.80;;;22.40;58.80;;;;;;5060249;28;20444;-82
2024/03/13 03:49:17;;;;;;;1.90;1.50;;;22.40;58.80;;;;;;5062428;28;20454;-82
2024/03/13 03:51:44;;;;;;;2.23;1.57;;;22.40;58.80;;;;;;5072632;28;20432;-83
2024/03/13 03:54:11;;;;;;;2.13;1.60;;;22.40;58.70;;;;;;5078827;28;20455;-83
2024/03/13 03:56:39;;;;;;;1.80;1.40;;;22.40;58.70;;;;;;5078452;28;21019;-91
2024/03/13 03:59:07;;;;;;;1.77;1.43;;;22.40;58.70;;;;;;5079134;28;20431;-91
2024/03/13 04:01:34;;;;;;;1.83;1.27;;;22.40;58.70;;;;;;5078829;28;20508;-84
2024/03/13 04:04:02;;;;;;;2.30;1.50;;;22.40;58.70;;;;;;5078861;28;20593;-83
2024/03/13 04:06:29;;;;;;;2.00;1.60;;;22.40;58.70;;;;;;5078668;28;20442;-92
2024/03/13 04:08:56;;;;;;;1.80;1.30;;;22.40;58.70;;;;;;5078200;28;20948;-89
2024/03/13 04:11:23;;;;;;;1.70;1.30;;;22.40;58.70;;;;;;5077981;28;20436;-82
2024/03/13 04:13:50;;;;;;;1.90;1.40;;;22.40;58.80;;;;;;5078143;28;20481;-83
2024/03/13 04:16:17;;;;;;;2.10;1.50;;;22.40;58.80;;;;;;5077650;28;20443;-83
2024/03/13 04:18:44;;;;;;;2.27;1.40;;;22.40;58.80;;;;;;5078489;28;20436;-90
2024/03/13 04:21:11;;;;;;;2.17;1.83;;;22.40;58.80;;;;;;5078075;28;20530;-92
2024/03/13 04:23:39;;;;;;;2.03;1.40;;;22.40;58.80;;;;;;5078249;28;20432;-82
2024/03/13 04:26:06;;;;;;;2.33;1.63;;;22.40;58.80;;;;;;5077643;28;20458;-82
2024/03/13 04:28:33;;;;;;;2.00;1.50;;;22.40;58.80;;;;;;5077092;28;20470;-82
2024/03/13 04:31:01;;;;;;;1.73;1.40;;;22.40;58.80;;;;;;5077354;28;20789;-82
2024/03/13 04:33:28;;;;;;;1.70;1.30;;;22.40;58.80;;;;;;5077436;28;20447;-82
2024/03/13 04:35:57;;;;;;;1.90;1.43;;;22.40;58.80;;;;;;5077001;28;20459;-82
2024/03/13 04:38:24;;;;;;;1.60;1.17;;;22.40;58.80;;;;;;5076799;28;21001;-81
2024/03/13 04:40:51;;;;;;;1.70;1.30;;;22.40;58.80;;;;;;5077597;28;20432;-81
2024/03/13 04:43:18;;;;;;;1.73;1.23;;;22.40;58.80;;;;;;5072550;28;20435;-90
2024/03/13 04:45:45;;;;;;;1.80;1.40;;;22.40;58.80;;;;;;5076712;28;20470;-82
2024/03/13 04:48:13;;;;;;;1.97;1.40;;;22.40;58.80;;;;;;5076807;28;20443;-90
2024/03/13 04:50:40;;;;;;;1.67;1.27;;;22.40;58.80;;;;;;5077125;28;20484;-82
2024/03/13 04:53:07;;;;;;;1.90;1.40;;;22.40;58.80;;;;;;5077255;28;20439;-82
2024/03/13 04:55:34;;;;;;;1.70;1.20;;;22.40;58.90;;;;;;5076848;28;20432;-82
2024/03/13 04:58:01;;;;;;;1.70;1.30;;;22.40;58.80;;;;;;5076610;28;20558;-81
2024/03/13 05:00:28;;;;;;;1.97;1.40;;;22.40;58.80;;;;;;5076453;28;20462;-81
2024/03/13 05:02:55;;;;;;;1.60;1.17;;;22.40;58.80;;;;;;5076597;28;20439;-81
2024/03/13 05:05:22;;;;;;;1.80;1.53;;;22.40;58.80;;;;;;5076425;28;20508;-83
2024/03/13 05:07:49;;;;;;;1.80;1.30;;;22.50;58.90;;;;;;5076462;28;20431;-81
2024/03/13 05:10:16;;;;;;;1.53;1.00;;;22.40;58.70;;;;;;5065704;28;20443;-81
2024/03/13 05:12:43;;;;;;;2.00;1.30;;;22.50;58.80;;;;;;5045630;28;20441;-90
2024/03/13 05:15:10;;;;;;;1.60;1.10;;;22.50;58.70;;;;;;5053455;28;20452;-89
2024/03/13 05:17:38;;;;;;;1.60;1.23;;;22.60;58.80;;;;;;5041637;28;20559;-91
2024/03/13 05:20:07;;;;;;;1.60;1.13;;;22.50;58.70;;;;;;5055725;28;20433;-88
2024/03/13 05:22:34;;;;;;;1.80;1.20;;;22.50;58.70;;;;;;5052629;28;20474;-90
2024/03/13 05:25:01;;;;;;;1.80;1.33;;;22.60;58.70;;;;;;5054375;28;21209;-82
2024/03/13 05:27:27;;;;;;;1.80;1.30;;;22.50;58.60;;;;;;5047045;28;20437;-84
2024/03/13 05:29:56;;;;;;;1.80;1.37;;;22.50;58.60;;;;;;5053297;28;20426;-82
2024/03/13 05:32:23;;;;;;;1.83;1.20;;;22.50;58.60;;;;;;5044922;28;20441;-82
2024/03/13 05:34:50;;;;;;;1.60;1.10;;;22.50;58.60;;;;;;5050719;28;20506;-82
2024/03/13 05:37:17;;;;;;;1.80;1.30;;;22.50;58.70;;;;;;5043877;28;20488;-85
2024/03/13 05:39:44;;;;;;;1.73;1.10;;;22.50;58.70;;;;;;5056582;28;20437;-82
2024/03/13 05:42:11;;;;;;;1.70;1.10;;;22.50;58.70;;;;;;5049841;28;20494;-82
2024/03/13 05:44:38;;;;;;;1.70;1.20;;;22.50;58.70;;;;;;5045182;28;20972;-82
2024/03/13 05:47:05;;;;;;;1.70;1.20;;;22.50;58.70;;;;;;5029340;28;20472;-82
2024/03/13 05:49:32;;;;;;;2.00;1.30;;;22.50;58.70;;;;;;5036795;28;20463;-80
2024/03/13 05:51:59;;;;;;;2.20;1.57;;;22.40;58.70;;;;;;5054809;28;20504;-82
2024/03/13 05:54:28;;;;;;;1.80;1.30;;;22.40;58.70;;;;;;5068449;28;20434;-85
2024/03/13 05:56:55;;;;;;;1.80;1.10;;;22.40;58.70;;;;;;5061223;28;20472;-90
2024/03/13 05:59:22;;;;;;;1.80;1.40;;;22.40;58.70;;;;;;5056954;28;20433;-90
2024/03/13 06:01:48;;;;;;;1.80;1.20;;;22.40;58.80;;;;;;5056450;28;20491;-88
2024/03/13 06:04:16;;;;;;;2.03;1.27;;;22.40;58.90;;;;;;5055802;28;20452;-86
2024/03/13 06:06:43;;;;;;;1.77;1.10;;;22.40;59.00;;;;;;5055925;28;20521;-83
2024/03/13 06:09:10;;;;;;;1.60;1.10;;;22.40;59.00;;;;;;5056215;28;20437;-90
2024/03/13 06:11:37;;;;;;;1.70;1.27;;;22.40;59.10;;;;;;5055631;28;20441;-81
2024/03/13 06:14:04;;;;;;;1.80;1.20;;;22.30;59.10;;;;;;5055582;28;20531;-81
2024/03/13 06:16:31;;;;;;;1.67;1.10;;;22.40;59.20;;;;;;5051126;28;20429;-83
2024/03/13 06:18:58;;;;;;;2.83;1.30;;;22.40;59.20;;;;;;5039884;28;20542;-84
2024/03/13 06:21:25;;;;;;;2.83;1.30;;;22.40;59.20;;;;;;5039456;28;20439;-96
2024/03/13 06:23:59;;;;;;;2.40;1.20;;;22.40;59.20;;;;;;5040106;28;20498;-85
2024/03/13 06:26:27;;;;;;;4.90;1.17;;;22.40;59.30;;;;;;5042472;28;20458;-86
2024/03/13 06:31:39;;;;;;;1.83;1.10;;;22.40;59.40;;;;;;5044836;28;20424;-94
2024/03/13 06:34:08;;;;;;;1.90;1.40;;;22.40;59.40;;;;;;5038969;28;20460;-86
2024/03/13 06:36:36;;;;;;;3.60;1.20;;;22.40;59.40;;;;;;5040811;28;20449;-84
2024/03/13 06:39:03;;;;;;;3.40;1.30;;;22.40;59.50;;;;;;5038847;28;20487;-84
2024/03/13 06:41:30;;;;;;;1.80;1.00;;;22.40;59.60;;;;;;5038837;28;20433;-92
2024/03/13 06:43:57;;;;;;;3.80;1.30;;;22.40;59.70;;;;;;5038892;28;20439;-84
2024/03/13 06:46:25;;;;;;;2.57;1.10;;;22.40;59.80;;;;;;5038657;28;20460;-93
2024/03/13 06:48:52;;;;;;;1.83;1.33;;;22.40;59.80;;;;;;5039469;28;20425;-83
2024/03/13 06:51:18;;;;;;;2.90;1.37;;;22.40;59.90;;;;;;5038821;28;20437;-84
2024/03/13 06:53:45;;;;;;;4.03;1.30;;;22.30;59.90;;;;;;5038855;28;20452;-83
2024/03/13 06:56:12;;;;;;;2.50;1.00;;;22.40;60.10;;;;;;5038908;28;20428;-82
2024/03/13 06:58:39;;;;;;;2.97;1.20;;;22.40;60.10;;;;;;5038797;28;20626;-87
2024/03/13 07:01:12;;;;;;;1.90;1.30;;;22.40;60.20;;;;;;5041134;28;20455;-82
2024/03/13 07:03:40;;;;;;;1.97;1.10;;;22.50;60.30;;;;;;5056575;28;20456;-82
2024/03/13 07:06:07;;;;;;;3.60;1.20;;;22.40;60.10;;;;;;5058143;28;20436;-82
2024/03/13 07:08:35;;;;;;;4.43;1.50;;;22.40;60.10;;;;;;5058545;28;20440;-83
2024/03/13 07:11:05;;;;;;;2.55;1.30;;;22.40;60.00;;;;;;5059236;28;20840;-82
2024/03/13 07:13:32;;;;;;;2.07;1.10;;;22.50;60.20;;;;;;5059548;28;20271;-83
2024/03/13 07:16:01;;;;;;;4.50;1.57;;;22.50;60.00;;;;;;5054604;28;20437;-82
2024/03/13 07:18:28;;;;;;;3.93;1.90;;;22.50;59.90;;;;;;5023996;28;20899;-86
2024/03/13 07:20:56;;;;;;;1.60;1.10;;;22.50;59.90;;;;;;5042699;28;20970;-82
2024/03/13 07:23:23;;;;;;;4.13;1.27;;;22.50;59.90;;;;;;5042478;28;20501;-88
2024/03/13 07:25:53;;;;;;;1.60;0.90;;;22.50;59.80;;;;;;5041576;28;20439;-86
2024/03/13 07:28:19;;;;;;;2.57;1.37;;;22.50;59.90;;;;;;5054892;28;20440;-89
2024/03/13 07:30:47;;;;;;;2.53;1.20;;;22.40;59.90;;;;;;5057387;28;20441;-79
2024/03/13 07:33:14;;;;;;;1.80;1.00;;;22.50;60.00;;;;;;5056636;28;20440;-79
2024/03/13 07:35:41;;;;;;;7.63;0.87;;;22.50;59.90;;;;;;5057626;28;20463;-80
2024/03/13 07:38:09;;;;;;;1.70;1.00;;;22.50;59.90;;;;;;5058603;28;20490;-80
2024/03/13 07:40:37;;;;;;;3.03;1.00;;;22.40;59.80;;;;;;5058013;28;20436;-81
2024/03/13 07:43:05;;;;;;;2.30;1.00;;;22.50;59.90;;;;;;5058703;28;20491;-82
2024/03/13 07:45:32;;;;;;;2.73;0.90;;;22.40;59.70;;;;;;5059179;28;20465;-81
2024/03/13 07:47:59;;;;;;;1.60;0.90;;;22.50;59.80;;;;;;5059039;28;20443;-82
2024/03/13 07:50:26;;;;;;;1.70;1.10;;;22.50;59.80;;;;;;5058965;28;20455;-81
2024/03/13 07:52:53;;;;;;;5.73;1.27;;;22.40;60.40;;;;;;5058241;28;20444;-82
2024/03/13 07:55:21;;;;;;;2.63;1.00;;;22.40;59.60;;;;;;5058427;28;20443;-80
2024/03/13 07:57:48;;;;;;;3.03;1.20;;;22.50;59.70;;;;;;5058429;28;20480;-80
2024/03/13 08:00:17;;;;;;;4.93;1.07;;;22.40;59.60;;;;;;5058875;28;20436;-90
2024/03/13 08:02:45;;;;;;;3.10;1.20;;;22.50;59.60;;;;;;5060300;28;20443;-81
2024/03/13 08:05:11;;;;;;;3.33;1.07;;;22.50;59.60;;;;;;5057734;28;20509;-82
2024/03/13 08:07:38;;;;;;;2.43;1.00;;;22.50;59.60;;;;;;5057340;28;20440;-82
2024/03/13 08:10:08;;;;;;;2.33;1.40;;;22.50;59.60;;;;;;5057456;28;20447;-90
2024/03/13 08:12:35;;;;;;;1.60;1.00;;;22.50;59.60;;;;;;5057086;28;20439;-82
2024/03/13 08:15:03;;;;;;;1.60;0.90;;;22.50;59.60;;;;;;5057077;28;20444;-82
2024/03/13 08:17:30;;;;;;;1.60;0.80;;;22.50;59.60;;;;;;5057267;28;20809;-81
2024/03/13 08:19:57;;;;;;;1.60;0.90;;;22.50;59.60;;;;;;5059733;28;20799;-82
2024/03/13 08:22:24;;;;;;;6.03;1.00;;;22.50;59.60;;;;;;5058862;28;20439;-82
2024/03/13 08:24:51;;;;;;;2.30;1.00;;;22.50;60.30;;;;;;5060189;28;20444;-82
2024/03/13 08:27:18;;;;;;;2.33;1.10;;;22.50;59.60;;;;;;5057650;28;20439;-82
2024/03/13 08:29:45;;;;;;;2.53;1.50;;;22.50;59.60;;;;;;5057205;28;21046;-90
2024/03/13 08:32:12;;;;;;;1.83;0.97;;;22.50;59.70;;;;;;5057396;28;20435;-83
2024/03/13 08:34:39;;;;;;;1.70;0.97;;;22.50;59.70;;;;;;5057210;28;20459;-82
2024/03/13 08:37:06;;;;;;;1.60;0.90;;;22.50;59.70;;;;;;5057368;28;20793;-82
2024/03/13 08:39:34;;;;;;;1.60;1.10;;;22.40;59.60;;;;;;5057040;28;20480;-82
2024/03/13 08:42:01;;;;;;;2.00;1.00;;;22.40;59.60;;;;;;5057294;28;20938;-82
2024/03/13 08:44:29;;;;;;;1.87;0.90;;;22.50;59.70;;;;;;5056844;28;20834;-82
2024/03/13 08:46:57;;;;;;;1.60;0.80;;;22.50;59.70;;;;;;5057082;28;20880;-82
2024/03/13 08:49:24;;;;;;;2.17;1.10;;;22.50;59.70;;;;;;5057101;28;20468;-81
2024/03/13 08:51:51;;;;;;;1.73;1.07;;;22.50;59.70;;;;;;5057105;28;20548;-81
2024/03/13 08:54:18;;;;;;;2.13;0.80;;;22.50;59.80;;;;;;5052563;28;20438;-84
2024/03/13 08:56:46;;;;;;;1.40;0.80;;;22.50;59.70;;;;;;5056984;28;20432;-83
2024/03/13 08:59:13;;;;;;;1.50;0.90;;;22.50;59.70;;;;;;5056962;28;20475;-82
2024/03/13 09:01:44;;;;;;;1.40;0.80;;;22.50;59.70;;;;;;5057028;28;20444;-83
2024/03/13 09:04:11;;;;;;;2.57;0.90;;;22.50;59.70;;;;;;5056576;28;20456;-83
2024/03/13 09:06:38;;;;;;;2.30;1.00;;;22.60;59.80;;;;;;5070401;28;20437;-83
2024/03/13 09:09:05;;;;;;;1.60;0.97;;;22.50;59.70;;;;;;5075227;28;20432;-81
2024/03/13 09:11:31;;;;;;;1.60;0.90;;;22.50;59.80;;;;;;5068437;28;20443;-86
2024/03/13 09:14:01;;;;;;;2.53;1.00;;;22.50;59.80;;;;;;5057325;28;20946;-83
2024/03/13 09:16:28;;;;;;;1.63;1.07;;;22.50;59.80;;;;;;5057297;28;20453;-83
2024/03/13 09:18:56;;;;;;;1.60;0.93;;;22.40;59.70;;;;;;5056443;28;20495;-84
2024/03/13 09:21:23;;;;;;;1.70;0.90;;;22.40;59.70;;;;;;5056691;28;20498;-89
2024/03/13 09:23:51;;;;;;;1.50;0.90;;;22.40;59.70;;;;;;5055491;28;20436;-84
2024/03/13 09:26:18;;;;;;;2.87;0.97;;;22.40;59.70;;;;;;5056617;28;20433;-87
2024/03/13 09:28:45;;;;;;;2.73;0.93;;;22.40;59.70;;;;;;5056579;28;20780;-84
2024/03/13 09:31:14;;;;;;;1.70;0.90;;;22.50;59.90;;;;;;5056566;28;20441;-83
2024/03/13 09:33:41;;;;;;;1.60;0.80;;;22.40;59.80;;;;;;5056357;28;20483;-88
2024/03/13 09:36:10;;;;;;;1.50;0.90;;;22.30;59.70;;;;;;5056323;28;20443;-85
2024/03/13 09:38:37;;;;;;;1.40;0.80;;;22.40;59.80;;;;;;5056965;28;20480;-87
2024/03/13 09:41:06;;;;;;;2.57;1.10;;;22.40;59.80;;;;;;5056857;28;20438;-86
2024/03/13 09:43:37;;;;;;;1.50;0.80;;;22.40;59.80;;;;;;5056938;28;20848;-89
2024/03/13 09:46:04;;;;;;;4.00;1.00;;;22.40;59.90;;;;;;5056886;28;20465;-86
2024/03/13 09:48:31;;;;;;;5.20;0.90;;;22.40;59.90;;;;;;5057784;28;20440;-81
2024/03/13 09:50:58;;;;;;;1.80;1.03;;;22.40;60.00;;;;;;5058366;28;20440;-81
2024/03/13 09:53:27;;;;;;;1.57;0.90;;;22.40;60.10;;;;;;5056634;28;20463;-80
2024/03/13 09:55:54;;;;;;;1.67;1.00;;;22.40;60.10;;;;;;5041669;28;20498;-81
2024/03/13 09:58:22;;;;;;;1.50;0.80;;;22.40;60.60;;;;;;5056925;28;20936;-81
2024/03/13 10:00:49;;;;;;;4.23;0.90;;;22.30;60.20;;;;;;5056263;28;20428;-81
2024/03/13 10:03:19;;;;;;;1.90;1.00;;;22.30;60.40;;;;;;5056364;28;20440;-82
2024/03/13 10:05:46;;;;;;;1.70;1.00;;;22.30;60.60;;;;;;5056476;28;20437;-81
2024/03/13 10:08:13;;;;;;;1.70;0.90;;;22.40;60.70;;;;;;5056008;28;20478;-82
2024/03/13 10:10:40;;;;;;;2.53;0.90;;;22.30;60.80;;;;;;5056159;28;20448;-81
2024/03/13 10:13:07;;;;;;;2.73;0.90;;;22.30;60.80;;;;;;5056295;28;20437;-81
2024/03/13 10:15:36;;;;;;;1.50;0.93;;;22.30;60.80;;;;;;5056031;28;20531;-81
2024/03/13 10:18:05;;;;;;;1.57;1.00;;;22.30;60.80;;;;;;5056387;28;20432;-81
2024/03/13 10:20:32;;;;;;;1.60;0.90;;;22.30;60.80;;;;;;5056240;28;20432;-81
2024/03/13 10:22:59;;;;;;;1.63;1.00;;;22.30;60.90;;;;;;5056355;28;20444;-81
2024/03/13 10:25:26;;;;;;;1.50;0.90;;;22.30;60.90;;;;;;5056046;28;20444;-82
2024/03/13 10:27:53;;;;;;;1.80;1.00;;;22.30;60.90;;;;;;5056720;28;20441;-95
2024/03/13 10:30:21;;;;;;;1.53;0.70;;;22.30;60.90;;;;;;5057203;28;20808;-81
2024/03/13 10:32:48;;;;;;;2.07;0.80;;;22.30;60.90;;;;;;5056542;28;20919;-81
2024/03/13 10:35:16;;;;;;;1.80;0.87;;;22.30;60.80;;;;;;5057542;28;20456;-80
2024/03/13 10:37:43;;;;;;;2.00;0.87;;;22.30;60.90;;;;;;5060147;28;20547;-80
2024/03/13 10:40:14;;;;;;;1.70;1.10;;;22.30;60.90;;;;;;5050634;28;20488;-93
2024/03/13 10:42:42;;;;;;;1.80;1.20;;;22.30;60.80;;;;;;5024996;28;20800;-86
2024/03/13 10:45:12;;;;;;;1.80;0.87;;;22.30;61.10;;;;;;5040033;28;20508;-91
2024/03/13 10:47:39;;;;;;;2.50;0.90;;;22.30;60.90;;;;;;5023043;28;20441;-85
2024/03/13 10:50:08;;;;;;;2.17;1.00;;;22.30;61.00;;;;;;5039715;28;20451;-91
2024/03/13 10:52:35;;;;;;;4.00;1.20;;;22.30;61.10;;;;;;5040313;28;20507;-85
2024/03/13 10:55:02;;;;;;;1.60;1.00;;;22.30;61.00;;;;;;5039776;28;20430;-85
2024/03/13 10:57:29;;;;;;;2.03;1.00;;;22.40;61.20;;;;;;5040254;28;20433;-83
2024/03/13 10:59:56;;;;;;;2.03;0.80;;;22.30;61.00;;;;;;5039557;28;20492;-86
2024/03/13 11:02:23;;;;;;;1.50;0.90;;;22.30;61.00;;;;;;5039233;28;20437;-84
2024/03/13 11:04:51;;;;;;;1.53;1.00;;;22.30;61.10;;;;;;5038973;28;20457;-83
2024/03/13 11:07:18;;;;;;;1.60;1.00;;;22.30;61.10;;;;;;5039136;28;20453;-83
2024/03/13 11:09:45;;;;;;;1.80;1.00;;;22.30;61.20;;;;;;5039040;28;20452;-93
2024/03/13 11:12:18;;;;;;;1.60;0.93;;;22.40;61.40;;;;;;5038834;28;20792;-83
2024/03/13 11:14:50;;;;;;;2.03;1.27;;;22.30;61.20;;;;;;5039611;28;20444;-84
2024/03/13 11:17:17;;;;;;;1.60;1.10;;;22.30;61.20;;;;;;5039621;28;20476;-83
2024/03/13 11:19:45;;;;;;;1.97;1.10;;;22.30;61.20;;;;;;5038563;28;20550;-84
2024/03/13 11:22:12;;;;;;;1.70;1.00;;;22.30;61.30;;;;;;5038760;28;20449;-87
2024/03/13 11:24:40;;;;;;;2.30;1.20;;;22.30;61.20;;;;;;5038540;28;20541;-82
2024/03/13 11:27:10;;;;;;;2.30;1.27;;;22.30;61.30;;;;;;5038482;28;20472;-81
2024/03/13 11:29:40;;;;;;;1.83;1.10;;;22.30;61.30;;;;;;5038667;28;20460;-81
2024/03/13 11:32:08;;;;;;;3.60;1.00;;;22.30;61.20;;;;;;5038500;28;20438;-89
2024/03/13 11:34:37;;;;;;;2.00;1.10;;;22.30;61.00;;;;;;5038211;28;20461;-81
2024/03/13 11:37:07;;;;;;;2.03;1.23;;;22.30;60.90;;;;;;5038359;28;20440;-82
2024/03/13 11:39:33;;;;;;;1.60;1.13;;;22.30;60.70;;;;;;5022526;28;20515;-86
2024/03/13 11:42:08;;;;;;;2.10;1.00;;;22.30;60.70;;;;;;5038323;28;20438;-82
2024/03/13 11:44:37;;;;;;;2.53;1.30;;;22.30;60.60;;;;;;5037987;28;20803;-82
2024/03/13 11:47:05;;;;;;;1.90;1.03;;;22.30;60.50;;;;;;5037067;28;20437;-82
2024/03/13 11:49:32;;;;;;;2.37;1.17;;;22.40;60.50;;;;;;5038172;28;20442;-80
2024/03/13 11:52:12;;;;;;;2.47;1.57;;;22.40;60.50;;;;;;5037633;28;20439;-80
2024/03/13 11:54:40;;;;;;;1.70;1.37;;;22.40;60.60;;;;;;5038062;28;20499;-87
2024/03/13 11:57:07;;;;;;;1.80;1.17;;;22.30;60.30;;;;;;5038268;28;20442;-81
2024/03/13 11:59:41;;;;;;;1.50;1.00;;;22.30;60.30;;;;;;5038436;28;20487;-93
2024/03/13 12:02:24;;;;;;;2.63;1.20;;;22.30;60.30;;;;;;5037987;28;20428;-92
2024/03/13 12:04:51;;;;;;;1.60;1.10;;;22.40;60.50;;;;;;5030714;28;20473;-82
2024/03/13 12:07:18;;;;;;;3.73;1.30;;;22.30;60.50;;;;;;5036923;28;20430;-81
2024/03/13 12:09:45;;;;;;;2.33;1.20;;;22.20;60.50;;;;;;5036369;28;20450;-82
2024/03/13 12:12:12;;;;;;;2.27;1.63;;;22.20;60.40;;;;;;5036368;28;20438;-81
2024/03/13 12:14:43;;;;;;;2.47;1.23;;;22.20;60.70;;;;;;5036650;28;20446;-83
2024/03/13 12:17:09;;;;;;;1.67;1.20;;;22.20;60.60;;;;;;5037091;28;20444;-81
2024/03/13 12:19:36;;;;;;;1.67;1.17;;;22.20;60.70;;;;;;5037092;28;20481;-91
2024/03/13 12:22:03;;;;;;;1.50;1.10;;;22.20;60.60;;;;;;5041107;28;20437;-80
2024/03/13 12:24:33;;;;;;;2.53;1.40;;;22.20;60.80;;;;;;5044927;28;20436;-82
2024/03/13 12:27:00;;;;;;;1.60;1.10;;;22.20;60.80;;;;;;5046738;28;20476;-86
2024/03/13 12:29:27;;;;;;;2.07;1.40;;;22.30;60.80;;;;;;5038110;28;20797;-92
2024/03/13 12:31:54;;;;;;;1.70;1.20;;;22.20;60.70;;;;;;5037798;28;20449;-82
2024/03/13 12:34:21;;;;;;;1.80;1.30;;;22.20;60.80;;;;;;5037414;28;20603;-82
2024/03/13 12:36:48;;;;;;;1.70;1.37;;;22.20;60.70;;;;;;5037393;28;20954;-82
2024/03/13 12:39:17;;;;;;;1.67;1.27;;;22.20;60.80;;;;;;5037885;28;20495;-82
2024/03/13 12:41:44;;;;;;;1.90;1.40;;;22.30;60.90;;;;;;5038365;28;20928;-82
2024/03/13 12:44:11;;;;;;;1.97;1.30;;;22.20;60.80;;;;;;5037782;28;20493;-82
2024/03/13 12:46:40;;;;;;;1.77;1.37;;;22.20;60.90;;;;;;5037363;28;20433;-82
2024/03/13 12:49:07;;;;;;;2.40;1.30;;;22.20;60.80;;;;;;5053316;28;20436;-82
2024/03/13 12:51:34;;;;;;;5.17;1.30;;;22.20;60.80;;;;;;5051418;28;20544;-82
2024/03/13 12:54:06;;;;;;;1.60;1.20;;;22.20;60.90;;;;;;5048296;28;20491;-80
2024/03/13 12:56:32;;;;;;;1.57;1.20;;;22.20;60.80;;;;;;5038055;28;20492;-81
2024/03/13 12:58:59;;;;;;;1.70;1.10;;;22.20;60.80;;;;;;5046674;28;20444;-81
2024/03/13 13:01:26;;;;;;;1.70;1.13;;;22.20;60.90;;;;;;5054957;28;20953;-81
2024/03/13 13:03:53;;;;;;;1.70;1.10;;;22.20;60.80;;;;;;5054297;28;20456;-81
2024/03/13 13:06:21;;;;;;;2.90;1.30;;;22.20;60.90;;;;;;5056187;28;20438;-81
2024/03/13 13:08:48;;;;;;;2.20;1.50;;;22.20;61.00;;;;;;5056566;28;20432;-80
2024/03/13 13:11:17;;;;;;;1.93;1.23;;;22.20;61.10;;;;;;5056783;28;20436;-80